createdAt,value
2023-03-06T00:02:19.091Z,6.03
2023-03-06T00:07:15.462Z,6.03
2023-03-06T00:12:11.583Z,6.25
2023-03-06T00:17:07.882Z,6.2
2023-03-06T00:22:04.105Z,6.15
2023-03-06T00:27:00.586Z,6.16
2023-03-06T00:31:56.662Z,6.04
2023-03-06T00:36:52.947Z,6.09
2023-03-06T00:41:49.176Z,6.48
2023-03-06T00:46:45.419Z,6.32
2023-03-06T00:51:41.698Z,6.15
2023-03-06T00:56:37.916Z,6.13
2023-03-06T01:06:38.458Z,6.1
2023-03-06T01:11:34.695Z,5.94
2023-03-06T01:16:36.027Z,5.99
2023-03-06T01:21:32.179Z,6.01
2023-03-06T01:26:27.461Z,6.04
2023-03-06T01:31:23.717Z,6.13
2023-03-06T01:36:19.962Z,6.13
2023-03-06T01:41:17.226Z,6.07
2023-03-06T01:46:25.509Z,6.02
2023-03-06T01:51:22.752Z,6.07
2023-03-06T01:56:19.037Z,6.05
2023-03-06T02:01:15.296Z,6.11
2023-03-06T02:06:12.599Z,6.03
2023-03-06T02:11:14.887Z,6.1
2023-03-06T02:16:11.986Z,6.17
2023-03-06T02:21:10.278Z,6.06
2023-03-06T02:26:09.529Z,6.03
2023-03-06T02:31:06.819Z,6
2023-03-06T02:36:05.043Z,6.1
2023-03-06T02:41:03.291Z,6.07
2023-03-06T02:46:03.655Z,6.08
2023-03-06T02:50:59.787Z,5.94
2023-03-06T02:55:56.241Z,5.74
2023-03-06T03:00:52.277Z,5.74
2023-03-06T03:05:48.563Z,5.76
2023-03-06T03:10:44.840Z,5.82
2023-03-06T03:15:41.218Z,6.28
2023-03-06T03:20:41.329Z,6.29
2023-03-06T03:25:38.604Z,6.1
2023-03-06T03:30:34.851Z,5.65
2023-03-06T03:35:31.222Z,5.45
2023-03-06T03:40:27.392Z,5.36
2023-03-06T03:45:23.599Z,5.28
2023-03-06T03:50:19.897Z,5.14
2023-03-06T03:55:16.133Z,5.11
2023-03-06T04:00:12.418Z,4.92
2023-03-06T04:05:09.726Z,5.21
2023-03-06T04:10:06.889Z,5.1
2023-03-06T04:15:04.198Z,4.65
2023-03-06T04:20:00.465Z,4.3
2023-03-06T04:24:56.708Z,4.32
2023-03-06T04:29:52.940Z,4.46
2023-03-06T04:34:49.265Z,4.23
2023-03-06T04:39:45.450Z,4.21
2023-03-06T04:44:41.779Z,4.16
2023-03-06T04:49:37.979Z,4.02
2023-03-06T04:54:34.291Z,3.96
2023-03-06T04:59:30.517Z,4.01
2023-03-06T05:04:26.809Z,3.74
2023-03-06T05:09:23.072Z,3.86
2023-03-06T05:14:19.333Z,4.13
2023-03-06T05:19:15.541Z,4.37
2023-03-06T05:24:11.781Z,4.19
2023-03-06T05:29:08.090Z,4.16
2023-03-06T05:34:04.345Z,4.31
2023-03-06T05:39:00.609Z,4.4
2023-03-06T05:43:56.854Z,4.53
2023-03-06T05:48:54.114Z,4.45
2023-03-06T05:53:50.567Z,4.89
2023-03-06T05:58:46.650Z,4.85
2023-03-06T06:03:42.930Z,4.4
2023-03-06T06:08:39.234Z,4.52
2023-03-06T06:13:35.374Z,4.7
2023-03-06T06:18:31.697Z,4.78
2023-03-06T06:23:28.008Z,4.74
2023-03-06T06:28:27.153Z,4.6
2023-03-06T06:33:23.408Z,5.06
2023-03-06T06:38:19.806Z,5.36
2023-03-06T06:43:15.962Z,5.19
2023-03-06T06:48:12.235Z,5.22
2023-03-06T06:53:08.452Z,5.49
2023-03-06T06:58:04.708Z,5.96
2023-03-06T07:03:00.952Z,6.26
2023-03-06T07:07:57.286Z,6.74
2023-03-06T07:12:53.535Z,6.8
2023-03-06T07:17:50.340Z,6.89
2023-03-06T07:22:51.432Z,7.06
2023-03-06T07:27:53.601Z,7.21
2023-03-06T07:32:52.532Z,7.51
2023-03-06T07:37:47.803Z,7.57
2023-03-06T07:42:44.219Z,7.35
2023-03-06T07:47:40.282Z,8.22
2023-03-06T07:52:35.581Z,8.46
2023-03-06T07:57:31.835Z,7.96
2023-03-06T08:02:28.070Z,7.82
2023-03-06T08:07:24.362Z,8.23
2023-03-06T08:12:20.588Z,8.62
2023-03-06T08:17:16.856Z,8.39
2023-03-06T08:22:13.134Z,8.6
2023-03-06T08:27:09.388Z,8.43
2023-03-06T08:32:10.884Z,8.72
2023-03-06T08:37:06.891Z,9.12
2023-03-06T08:42:03.135Z,9.44
2023-03-06T08:47:00.370Z,9.63
2023-03-06T08:51:56.668Z,9.82
2023-03-06T08:56:53.859Z,9.82
2023-03-06T09:01:52.188Z,10.1
2023-03-06T09:06:48.415Z,9.94
2023-03-06T09:11:46.692Z,9.72
2023-03-06T09:16:42.999Z,10.16
2023-03-06T09:21:40.477Z,10.11
2023-03-06T09:26:45.945Z,10.64
2023-03-06T09:31:41.949Z,11.47
2023-03-06T09:36:54.967Z,10.59
2023-03-06T09:41:46.171Z,10.94
2023-03-06T09:46:53.401Z,10.75
2023-03-06T09:51:57.617Z,10.86
2023-03-06T09:56:54.918Z,11.07
2023-03-06T10:01:58.160Z,11.44
2023-03-06T10:06:59.396Z,11.43
2023-03-06T10:12:00.665Z,11.55
2023-03-06T10:16:58.896Z,11.89
2023-03-06T10:22:02.167Z,12.12
2023-03-06T10:27:07.446Z,12.17
2023-03-06T10:32:10.745Z,12.16
2023-03-06T10:37:12.864Z,12.76
2023-03-06T10:42:09.108Z,12.51
2023-03-06T10:47:14.352Z,12.35
2023-03-06T10:52:15.627Z,12.75
2023-03-06T10:57:18.822Z,12.67
2023-03-06T11:02:24.069Z,12.27
2023-03-06T11:07:21.346Z,12.51
2023-03-06T11:12:20.645Z,12.59
2023-03-06T11:17:27.862Z,13.22
2023-03-06T11:22:32.105Z,13.7
2023-03-06T11:27:30.348Z,14.04
2023-03-06T11:32:30.691Z,13.78
2023-03-06T11:37:34.756Z,13.89
2023-03-06T11:42:38.045Z,14.48
2023-03-06T11:47:42.285Z,14.35
2023-03-06T11:52:46.570Z,14.58
2023-03-06T11:57:49.769Z,14.73
2023-03-06T12:08:06.237Z,14.66
2023-03-06T12:13:17.422Z,14.48
2023-03-06T12:18:29.629Z,14.89
2023-03-06T12:23:38.918Z,14.99
2023-03-06T12:28:51.171Z,15.36
2023-03-06T12:33:58.336Z,15.58
2023-03-06T12:39:07.591Z,15.72
2023-03-06T12:44:17.822Z,15.36
2023-03-06T12:49:31.083Z,14.47
2023-03-06T12:54:23.314Z,14.01
2023-03-06T12:59:30.564Z,13.9
2023-03-06T13:04:40.724Z,12.84
2023-03-06T13:09:48.955Z,12.52
2023-03-06T13:14:54.608Z,12.42
2023-03-06T13:19:57.476Z,12.31
2023-03-06T13:25:08.226Z,12.32
2023-03-06T13:30:54.164Z,12.48
2023-03-06T13:36:08.114Z,12.22
2023-03-06T13:41:15.237Z,12.46
2023-03-06T13:46:18.528Z,12.41
2023-03-06T13:51:19.743Z,12.39
2023-03-06T13:56:26.961Z,12.32
2023-03-06T14:01:39.252Z,12.08
2023-03-06T14:06:46.443Z,11.9
2023-03-06T14:11:50.712Z,11.69
2023-03-06T14:16:51.087Z,11.34
2023-03-06T14:26:57.439Z,11.41
2023-03-06T14:31:55.666Z,11.58
2023-03-06T14:36:53.923Z,11.78
2023-03-06T14:42:01.200Z,11.45
2023-03-06T14:47:02.430Z,11.79
2023-03-06T14:51:58.662Z,12.15
2023-03-06T14:56:59.925Z,12.4
2023-03-06T15:02:00.330Z,12.42
2023-03-06T15:06:58.489Z,12.36
2023-03-06T15:11:55.624Z,12.41
2023-03-06T15:17:02.946Z,12.43
2023-03-06T15:22:01.169Z,12.25
2023-03-06T15:27:00.383Z,12.24
2023-03-06T15:32:07.679Z,11.95
2023-03-06T15:42:16.155Z,11.85
2023-03-06T15:47:12.395Z,11.77
2023-03-06T15:52:08.610Z,11.84
2023-03-06T15:57:06.885Z,11.69
2023-03-06T16:00:27.942Z,11.63
2023-03-06T16:05:24.656Z,11.73
2023-03-06T16:10:22.901Z,11.46
2023-03-06T16:17:19.863Z,11.33
2023-03-06T16:23:27.937Z,11.92
2023-03-06T16:28:25.227Z,11.51
2023-03-06T16:33:20.455Z,12.17
2023-03-06T16:38:17.673Z,12.46
2023-03-06T16:43:13.954Z,11.58
2023-03-06T16:48:13.215Z,11.26
2023-03-06T16:53:09.481Z,11.44
2023-03-06T16:58:05.720Z,12.08
2023-03-06T17:03:02.078Z,11.21
2023-03-06T17:07:58.306Z,10.95
2023-03-06T17:12:55.693Z,11.2
2023-03-06T17:17:51.827Z,11.33
2023-03-06T17:22:48.013Z,11.55
2023-03-06T17:27:44.362Z,10.67
2023-03-06T17:32:40.631Z,10.94
2023-03-06T17:37:36.911Z,11.11
2023-03-06T17:42:34.065Z,10.2
2023-03-06T17:47:30.338Z,10.43
2023-03-06T17:52:27.584Z,10.41
2023-03-06T17:57:23.836Z,10.43
2023-03-06T18:02:20.118Z,10.44
2023-03-06T18:07:16.415Z,10.39
2023-03-06T18:12:12.661Z,10.2
2023-03-06T18:17:08.906Z,10.18
2023-03-06T18:22:05.151Z,10.19
2023-03-06T18:27:01.420Z,10.2
2023-03-06T18:31:58.749Z,10.54
2023-03-06T18:36:55.919Z,10.51
2023-03-06T18:41:52.197Z,10.7
2023-03-06T18:46:48.442Z,10.67
2023-03-06T18:51:49.711Z,10.2
2023-03-06T18:56:46.969Z,10.34
2023-03-06T19:01:43.169Z,10.98
2023-03-06T19:06:41.451Z,10.73
2023-03-06T19:11:38.704Z,10.55
2023-03-06T19:16:35.122Z,10.42
2023-03-06T19:26:41.477Z,10.67
2023-03-06T19:31:39.746Z,10.53
2023-03-06T19:36:35.012Z,10.02
2023-03-06T19:41:31.234Z,9.93
2023-03-06T19:46:27.532Z,10.42
2023-03-06T19:51:23.768Z,9.96
2023-03-06T19:56:21.081Z,9.75
2023-03-06T20:01:18.319Z,9.91
2023-03-06T20:06:18.532Z,9.71
2023-03-06T20:11:15.795Z,9.46
2023-03-06T20:16:12.177Z,9.44
2023-03-06T20:21:08.341Z,9.45
2023-03-06T20:26:07.531Z,9.38
2023-03-06T20:30:38.120Z,9.52
2023-03-06T20:35:39.110Z,9.47
2023-03-06T20:44:39.800Z,9.55
2023-03-06T20:48:36.175Z,10
2023-03-06T20:53:34.431Z,9.78
2023-03-06T20:58:32.742Z,9.7
2023-03-06T21:03:29.964Z,10.79
2023-03-06T21:08:26.169Z,10.1
2023-03-06T21:13:22.479Z,9.42
2023-03-06T21:18:18.681Z,9.28
2023-03-06T21:23:14.990Z,8.99
2023-03-06T21:28:11.265Z,9.2
2023-03-06T21:33:10.534Z,9.02
2023-03-06T21:38:07.754Z,8.97
2023-03-06T21:43:05.982Z,8.95
2023-03-06T21:48:03.257Z,8.76
2023-03-06T21:52:59.487Z,8.81
2023-03-06T21:57:55.806Z,8.67
2023-03-06T22:02:52.035Z,8.74
2023-03-06T22:07:48.354Z,8.66
2023-03-06T22:12:45.578Z,8.51
2023-03-06T22:17:34.856Z,8.82
2023-03-06T22:20:30.400Z,8.96
2023-03-06T22:23:26.950Z,8.72
2023-03-06T22:26:33.477Z,8.61
2023-03-06T22:27:42.311Z,8.61
2023-03-06T22:30:11.957Z,8.54
2023-03-06T22:33:07.481Z,8.44
2023-03-06T22:36:06.197Z,8.48
2023-03-06T22:39:02.602Z,8.48
2023-03-06T22:41:59.171Z,8.8
2023-03-06T22:44:55.038Z,8.8
2023-03-06T22:50:55.819Z,8.59
2023-03-06T22:53:51.373Z,8.54
2023-03-06T22:56:47.972Z,8.55
2023-03-06T22:59:43.499Z,8.59
2023-03-06T23:02:40.043Z,8.69
2023-03-06T23:05:39.606Z,8.73
2023-03-06T23:08:36.181Z,8.85
2023-03-06T23:11:32.752Z,9.08
2023-03-06T23:14:29.295Z,8.99
2023-03-06T23:17:24.839Z,8.63
2023-03-06T23:20:21.400Z,8.13
2023-03-06T23:23:16.990Z,8.17
2023-03-06T23:26:13.554Z,8.59
2023-03-06T23:29:09.073Z,8.04
2023-03-06T23:32:05.769Z,8.94
2023-03-06T23:35:01.260Z,8.88
2023-03-06T23:37:57.782Z,8.69
2023-03-06T23:40:53.325Z,8.7
2023-03-06T23:43:49.875Z,9.59
2023-03-06T23:46:46.427Z,10.05
2023-03-06T23:49:41.977Z,9.81
2023-03-06T23:55:44.130Z,9.67
2023-03-06T23:58:40.699Z,9.43
